Terminal Aerodrome Forecast
Issued by NWS

Home | Current Version | Previous Version | Text Only | Print | Product List | Glossary On
Versions: 1 2 3 4 5 6 7 8 9 10 11 12 13 14 15 16 17 18 19 20 21 22 23 24 25 26 27 28 29 30 31 32 33 34
000
FTPA31 PHFO 201100
TAFJRF
TAF
PHJR 201120Z 2012/2112 VRB05KT P6SM VCSH FEW025 SCT045
     FM202000 12008G15KT P6SM SCT025 BKN045
     FM210400 VRB05KT P6SM FEW025 SCT045=

USA.gov is the U.S. government's official web portal to all federal, state and local government web resources and services.